sensor_id;sensor_type;location;lat;lon;timestamp;temperature;humidity
21123;DHT22;10719;48.130;11.630;2023-03-01T00:01:15;1.00;99.90
21123;DHT22;10719;48.130;11.630;2023-03-01T00:03:41;0.90;99.90
21123;DHT22;10719;48.130;11.630;2023-03-01T00:06:07;0.90;99.90
21123;DHT22;10719;48.130;11.630;2023-03-01T00:08:33;0.80;99.90
21123;DHT22;10719;48.130;11.630;2023-03-01T00:11:04;0.80;99.90
21123;DHT22;10719;48.130;11.630;2023-03-01T00:13:30;0.90;99.90
21123;DHT22;10719;48.130;11.630;2023-03-01T00:15:56;0.90;99.90
21123;DHT22;10719;48.130;11.630;2023-03-01T00:18:22;0.90;99.90
21123;DHT22;10719;48.130;11.630;2023-03-01T00:20:55;0.90;99.90
21123;DHT22;10719;48.130;11.630;2023-03-01T00:23:22;0.90;99.90
21123;DHT22;10719;48.130;11.630;2023-03-01T00:25:48;0.90;99.90
21123;DHT22;10719;48.130;11.630;2023-03-01T00:28:14;0.80;99.90
21123;DHT22;10719;48.130;11.630;2023-03-01T00:30:40;0.80;99.90
21123;DHT22;10719;48.130;11.630;2023-03-01T00:33:05;0.80;99.90
21123;DHT22;10719;48.130;11.630;2023-03-01T00:35:34;0.90;99.90
21123;DHT22;10719;48.130;11.630;2023-03-01T00:38:00;0.80;99.90
21123;DHT22;10719;48.130;11.630;2023-03-01T00:40:28;0.80;99.90
21123;DHT22;10719;48.130;11.630;2023-03-01T00:42:54;0.80;99.90
21123;DHT22;10719;48.130;11.630;2023-03-01T00:45:20;0.80;99.90
21123;DHT22;10719;48.130;11.630;2023-03-01T00:47:45;0.90;99.90
21123;DHT22;10719;48.130;11.630;2023-03-01T00:50:11;0.80;99.90
21123;DHT22;10719;48.130;11.630;2023-03-01T00:52:37;0.80;99.90
21123;DHT22;10719;48.130;11.630;2023-03-01T00:55:04;0.80;99.90
21123;DHT22;10719;48.130;11.630;2023-03-01T00:57:30;0.90;99.90
21123;DHT22;10719;48.130;11.630;2023-03-01T00:59:56;0.80;99.90
21123;DHT22;10719;48.130;11.630;2023-03-01T01:02:22;0.90;99.90
21123;DHT22;10719;48.130;11.630;2023-03-01T01:04:48;0.80;99.90
21123;DHT22;10719;48.130;11.630;2023-03-01T01:07:14;0.80;99.90
21123;DHT22;10719;48.130;11.630;2023-03-01T01:09:40;0.80;99.90
21123;DHT22;10719;48.130;11.630;2023-03-01T01:12:06;0.80;99.90
21123;DHT22;10719;48.130;11.630;2023-03-01T01:14:32;0.80;99.90
21123;DHT22;10719;48.130;11.630;2023-03-01T01:16:58;0.80;99.90
21123;DHT22;10719;48.130;11.630;2023-03-01T01:19:24;0.70;99.90
21123;DHT22;10719;48.130;11.630;2023-03-01T01:21:50;0.70;99.90
21123;DHT22;10719;48.130;11.630;2023-03-01T01:24:17;0.70;99.90
21123;DHT22;10719;48.130;11.630;2023-03-01T01:26:43;0.70;99.90
21123;DHT22;10719;48.130;11.630;2023-03-01T01:29:09;0.70;99.90
21123;DHT22;10719;48.130;11.630;2023-03-01T01:31:36;0.70;99.90
21123;DHT22;10719;48.130;11.630;2023-03-01T01:34:03;0.70;99.90
21123;DHT22;10719;48.130;11.630;2023-03-01T01:36:30;0.70;99.90
21123;DHT22;10719;48.130;11.630;2023-03-01T01:38:56;0.70;99.90
21123;DHT22;10719;48.130;11.630;2023-03-01T01:41:22;0.70;99.90
21123;DHT22;10719;48.130;11.630;2023-03-01T01:51:40;0.60;99.90
21123;DHT22;10719;48.130;11.630;2023-03-01T01:54:14;0.70;99.90
21123;DHT22;10719;48.130;11.630;2023-03-01T01:56:44;0.60;99.90
21123;DHT22;10719;48.130;11.630;2023-03-01T01:59:13;0.70;99.90
21123;DHT22;10719;48.130;11.630;2023-03-01T02:01:39;0.70;99.90
21123;DHT22;10719;48.130;11.630;2023-03-01T02:04:05;0.60;99.90
21123;DHT22;10719;48.130;11.630;2023-03-01T02:06:37;0.60;99.90
21123;DHT22;10719;48.130;11.630;2023-03-01T02:09:07;0.50;99.90
21123;DHT22;10719;48.130;11.630;2023-03-01T02:11:34;0.60;99.90
21123;DHT22;10719;48.130;11.630;2023-03-01T02:13:59;0.60;99.90
21123;DHT22;10719;48.130;11.630;2023-03-01T02:16:26;0.60;99.90
21123;DHT22;10719;48.130;11.630;2023-03-01T02:18:52;0.60;99.90
21123;DHT22;10719;48.130;11.630;2023-03-01T02:24:11;0.60;99.90
21123;DHT22;10719;48.130;11.630;2023-03-01T02:26:55;0.60;99.90
21123;DHT22;10719;48.130;11.630;2023-03-01T02:29:23;0.70;99.90
21123;DHT22;10719;48.130;11.630;2023-03-01T02:31:51;0.70;99.90
21123;DHT22;10719;48.130;11.630;2023-03-01T02:34:22;0.60;99.90
21123;DHT22;10719;48.130;11.630;2023-03-01T02:37:07;0.50;99.90
21123;DHT22;10719;48.130;11.630;2023-03-01T02:39:37;0.50;99.90
21123;DHT22;10719;48.130;11.630;2023-03-01T02:42:11;0.60;99.90
21123;DHT22;10719;48.130;11.630;2023-03-01T02:44:37;0.60;99.90
21123;DHT22;10719;48.130;11.630;2023-03-01T02:47:03;0.50;99.90
21123;DHT22;10719;48.130;11.630;2023-03-01T02:49:32;0.50;99.90
21123;DHT22;10719;48.130;11.630;2023-03-01T02:57:23;0.50;99.90
21123;DHT22;10719;48.130;11.630;2023-03-01T02:59:51;0.50;99.90
21123;DHT22;10719;48.130;11.630;2023-03-01T03:02:28;0.50;99.90
21123;DHT22;10719;48.130;11.630;2023-03-01T03:05:20;0.50;99.90
21123;DHT22;10719;48.130;11.630;2023-03-01T03:07:48;0.50;99.90
21123;DHT22;10719;48.130;11.630;2023-03-01T03:10:27;0.50;99.90
21123;DHT22;10719;48.130;11.630;2023-03-01T03:12:56;0.50;99.90
21123;DHT22;10719;48.130;11.630;2023-03-01T03:15:22;0.50;99.90
21123;DHT22;10719;48.130;11.630;2023-03-01T03:17:49;0.40;99.90
21123;DHT22;10719;48.130;11.630;2023-03-01T03:20:16;0.40;99.90
21123;DHT22;10719;48.130;11.630;2023-03-01T03:22:45;0.40;99.90
21123;DHT22;10719;48.130;11.630;2023-03-01T03:25:11;0.40;99.90
21123;DHT22;10719;48.130;11.630;2023-03-01T03:27:41;0.40;99.90
21123;DHT22;10719;48.130;11.630;2023-03-01T03:30:09;0.40;99.90
21123;DHT22;10719;48.130;11.630;2023-03-01T03:32:39;0.40;99.90
21123;DHT22;10719;48.130;11.630;2023-03-01T03:35:06;0.40;99.90
21123;DHT22;10719;48.130;11.630;2023-03-01T03:37:38;0.30;99.90
21123;DHT22;10719;48.130;11.630;2023-03-01T03:40:22;0.30;99.90
21123;DHT22;10719;48.130;11.630;2023-03-01T03:42:48;0.30;99.90
21123;DHT22;10719;48.130;11.630;2023-03-01T03:45:14;0.30;99.90
21123;DHT22;10719;48.130;11.630;2023-03-01T03:47:39;0.30;99.90
21123;DHT22;10719;48.130;11.630;2023-03-01T03:50:05;0.20;99.90
21123;DHT22;10719;48.130;11.630;2023-03-01T03:52:31;0.20;99.90
21123;DHT22;10719;48.130;11.630;2023-03-01T03:54:56;0.20;99.90
21123;DHT22;10719;48.130;11.630;2023-03-01T03:57:22;0.10;99.90
21123;DHT22;10719;48.130;11.630;2023-03-01T03:59:47;0.10;99.90
21123;DHT22;10719;48.130;11.630;2023-03-01T04:02:13;0.10;99.90
21123;DHT22;10719;48.130;11.630;2023-03-01T04:04:47;0.20;99.90
21123;DHT22;10719;48.130;11.630;2023-03-01T04:07:15;0.20;99.90
21123;DHT22;10719;48.130;11.630;2023-03-01T04:09:41;0.10;99.90
21123;DHT22;10719;48.130;11.630;2023-03-01T04:12:09;0.10;99.90
21123;DHT22;10719;48.130;11.630;2023-03-01T04:14:35;0.10;99.90
21123;DHT22;10719;48.130;11.630;2023-03-01T04:17:01;0.10;99.90
21123;DHT22;10719;48.130;11.630;2023-03-01T04:19:26;0.10;99.90
21123;DHT22;10719;48.130;11.630;2023-03-01T04:21:53;0.00;99.90
21123;DHT22;10719;48.130;11.630;2023-03-01T04:24:18;0.00;99.90
21123;DHT22;10719;48.130;11.630;2023-03-01T04:26:44;0.00;99.90
21123;DHT22;10719;48.130;11.630;2023-03-01T04:29:10;-0.10;99.90
21123;DHT22;10719;48.130;11.630;2023-03-01T04:31:35;-0.10;99.90
21123;DHT22;10719;48.130;11.630;2023-03-01T04:34:01;-0.10;99.90
21123;DHT22;10719;48.130;11.630;2023-03-01T04:36:28;-0.10;99.90
21123;DHT22;10719;48.130;11.630;2023-03-01T04:38:55;-0.10;99.90
21123;DHT22;10719;48.130;11.630;2023-03-01T04:41:23;-0.10;99.90
21123;DHT22;10719;48.130;11.630;2023-03-01T04:43:49;-0.20;99.90
21123;DHT22;10719;48.130;11.630;2023-03-01T04:46:17;-0.20;99.90
21123;DHT22;10719;48.130;11.630;2023-03-01T04:48:44;-0.20;99.90
21123;DHT22;10719;48.130;11.630;2023-03-01T04:51:10;-0.20;99.90
21123;DHT22;10719;48.130;11.630;2023-03-01T04:53:39;-0.30;99.90
21123;DHT22;10719;48.130;11.630;2023-03-01T04:56:06;-0.20;99.90
21123;DHT22;10719;48.130;11.630;2023-03-01T04:58:32;-0.30;99.90
21123;DHT22;10719;48.130;11.630;2023-03-01T05:00:57;-0.30;99.90
21123;DHT22;10719;48.130;11.630;2023-03-01T05:03:23;-0.30;99.90
21123;DHT22;10719;48.130;11.630;2023-03-01T05:05:51;-0.30;99.90
21123;DHT22;10719;48.130;11.630;2023-03-01T05:08:17;-0.40;99.90
21123;DHT22;10719;48.130;11.630;2023-03-01T05:10:49;-0.50;99.90
21123;DHT22;10719;48.130;11.630;2023-03-01T05:13:15;-0.50;99.90
21123;DHT22;10719;48.130;11.630;2023-03-01T05:15:56;-0.50;99.90
21123;DHT22;10719;48.130;11.630;2023-03-01T05:18:26;-0.60;99.90
21123;DHT22;10719;48.130;11.630;2023-03-01T05:21:00;-0.50;99.90
21123;DHT22;10719;48.130;11.630;2023-03-01T05:23:26;-0.60;99.90
21123;DHT22;10719;48.130;11.630;2023-03-01T05:25:52;-0.60;99.90
21123;DHT22;10719;48.130;11.630;2023-03-01T05:28:19;-0.70;99.90
21123;DHT22;10719;48.130;11.630;2023-03-01T05:30:45;-0.70;99.90
21123;DHT22;10719;48.130;11.630;2023-03-01T05:33:11;-0.70;99.90
21123;DHT22;10719;48.130;11.630;2023-03-01T05:35:41;-0.70;99.90
21123;DHT22;10719;48.130;11.630;2023-03-01T05:38:08;-0.70;99.90
21123;DHT22;10719;48.130;11.630;2023-03-01T05:40:34;-0.80;99.90
21123;DHT22;10719;48.130;11.630;2023-03-01T05:43:00;-0.80;99.90
21123;DHT22;10719;48.130;11.630;2023-03-01T05:45:26;-0.80;99.90
21123;DHT22;10719;48.130;11.630;2023-03-01T05:47:53;-0.80;99.90
21123;DHT22;10719;48.130;11.630;2023-03-01T05:50:22;-0.80;99.90
21123;DHT22;10719;48.130;11.630;2023-03-01T05:52:50;-0.80;99.90
21123;DHT22;10719;48.130;11.630;2023-03-01T05:55:20;-0.80;99.90
21123;DHT22;10719;48.130;11.630;2023-03-01T05:57:47;-0.80;99.90
21123;DHT22;10719;48.130;11.630;2023-03-01T06:00:15;-0.80;99.90
21123;DHT22;10719;48.130;11.630;2023-03-01T06:02:41;-0.80;99.90
21123;DHT22;10719;48.130;11.630;2023-03-01T06:05:08;-0.90;99.90
21123;DHT22;10719;48.130;11.630;2023-03-01T06:07:34;-0.80;99.90
21123;DHT22;10719;48.130;11.630;2023-03-01T06:10:01;-0.80;99.90
21123;DHT22;10719;48.130;11.630;2023-03-01T06:12:33;-0.70;99.90
21123;DHT22;10719;48.130;11.630;2023-03-01T06:14:59;-0.70;99.90
21123;DHT22;10719;48.130;11.630;2023-03-01T06:17:25;-0.70;99.90
21123;DHT22;10719;48.130;11.630;2023-03-01T06:19:51;-0.70;99.90
21123;DHT22;10719;48.130;11.630;2023-03-01T06:22:16;-0.70;99.90
21123;DHT22;10719;48.130;11.630;2023-03-01T06:24:42;-0.80;99.90
21123;DHT22;10719;48.130;11.630;2023-03-01T06:27:08;-0.70;99.90
21123;DHT22;10719;48.130;11.630;2023-03-01T06:29:33;-0.60;99.90
21123;DHT22;10719;48.130;11.630;2023-03-01T06:31:59;-0.70;99.90
21123;DHT22;10719;48.130;11.630;2023-03-01T06:34:24;-0.70;99.90
21123;DHT22;10719;48.130;11.630;2023-03-01T06:36:50;-0.70;99.90
21123;DHT22;10719;48.130;11.630;2023-03-01T06:39:16;-0.80;99.90
21123;DHT22;10719;48.130;11.630;2023-03-01T06:41:43;-0.70;99.90
21123;DHT22;10719;48.130;11.630;2023-03-01T06:44:08;-0.60;99.90
21123;DHT22;10719;48.130;11.630;2023-03-01T06:46:34;-0.60;99.90
21123;DHT22;10719;48.130;11.630;2023-03-01T06:49:00;-0.50;99.90
21123;DHT22;10719;48.130;11.630;2023-03-01T06:51:25;-0.50;99.90
21123;DHT22;10719;48.130;11.630;2023-03-01T06:53:51;-0.50;99.90
21123;DHT22;10719;48.130;11.630;2023-03-01T06:56:17;-0.50;99.90
21123;DHT22;10719;48.130;11.630;2023-03-01T06:58:42;-0.50;99.90
21123;DHT22;10719;48.130;11.630;2023-03-01T07:01:09;-0.60;99.90
21123;DHT22;10719;48.130;11.630;2023-03-01T07:03:34;-0.50;99.90
21123;DHT22;10719;48.130;11.630;2023-03-01T07:06:00;-0.40;99.90
21123;DHT22;10719;48.130;11.630;2023-03-01T07:08:26;-0.40;99.90
21123;DHT22;10719;48.130;11.630;2023-03-01T07:10:56;-0.30;99.90
21123;DHT22;10719;48.130;11.630;2023-03-01T07:13:22;-0.30;99.90
21123;DHT22;10719;48.130;11.630;2023-03-01T07:15:47;-0.30;99.90
21123;DHT22;10719;48.130;11.630;2023-03-01T07:18:13;-0.30;99.90
21123;DHT22;10719;48.130;11.630;2023-03-01T07:20:38;-0.30;99.90
21123;DHT22;10719;48.130;11.630;2023-03-01T07:23:05;-0.40;99.90
21123;DHT22;10719;48.130;11.630;2023-03-01T07:25:31;-0.40;99.90
21123;DHT22;10719;48.130;11.630;2023-03-01T07:27:58;-0.30;99.90
21123;DHT22;10719;48.130;11.630;2023-03-01T07:30:24;-0.30;99.90
21123;DHT22;10719;48.130;11.630;2023-03-01T07:32:56;-0.30;99.90
21123;DHT22;10719;48.130;11.630;2023-03-01T07:35:23;-0.30;99.90
21123;DHT22;10719;48.130;11.630;2023-03-01T07:37:50;-0.30;99.90
21123;DHT22;10719;48.130;11.630;2023-03-01T07:40:15;-0.30;99.90
21123;DHT22;10719;48.130;11.630;2023-03-01T07:42:41;-0.30;99.90
21123;DHT22;10719;48.130;11.630;2023-03-01T07:45:07;-0.10;99.90
21123;DHT22;10719;48.130;11.630;2023-03-01T07:47:33;0.00;99.90
21123;DHT22;10719;48.130;11.630;2023-03-01T07:49:59;0.10;99.90
21123;DHT22;10719;48.130;11.630;2023-03-01T07:52:26;0.10;99.90
21123;DHT22;10719;48.130;11.630;2023-03-01T07:54:52;0.10;99.90
21123;DHT22;10719;48.130;11.630;2023-03-01T07:57:17;0.00;99.90
21123;DHT22;10719;48.130;11.630;2023-03-01T07:59:43;0.00;99.90
21123;DHT22;10719;48.130;11.630;2023-03-01T08:02:10;-0.10;99.90
21123;DHT22;10719;48.130;11.630;2023-03-01T08:04:35;-0.10;99.90
21123;DHT22;10719;48.130;11.630;2023-03-01T08:07:01;0.00;99.90
21123;DHT22;10719;48.130;11.630;2023-03-01T08:09:29;-0.10;99.90
21123;DHT22;10719;48.130;11.630;2023-03-01T08:11:56;0.10;99.90
21123;DHT22;10719;48.130;11.630;2023-03-01T08:14:22;0.10;99.90
21123;DHT22;10719;48.130;11.630;2023-03-01T08:16:49;0.10;99.90
21123;DHT22;10719;48.130;11.630;2023-03-01T08:19:15;0.10;99.90
21123;DHT22;10719;48.130;11.630;2023-03-01T08:21:40;0.20;99.90
21123;DHT22;10719;48.130;11.630;2023-03-01T08:24:07;0.40;99.90
21123;DHT22;10719;48.130;11.630;2023-03-01T08:26:33;0.50;99.90
21123;DHT22;10719;48.130;11.630;2023-03-01T08:29:00;0.50;99.90
21123;DHT22;10719;48.130;11.630;2023-03-01T08:33:58;0.60;99.90
21123;DHT22;10719;48.130;11.630;2023-03-01T08:36:30;0.80;99.90
21123;DHT22;10719;48.130;11.630;2023-03-01T08:38:56;0.50;99.90
21123;DHT22;10719;48.130;11.630;2023-03-01T08:41:22;0.60;99.90
21123;DHT22;10719;48.130;11.630;2023-03-01T08:43:48;0.60;99.90
21123;DHT22;10719;48.130;11.630;2023-03-01T08:46:14;0.70;99.90
21123;DHT22;10719;48.130;11.630;2023-03-01T08:48:39;0.80;99.90
21123;DHT22;10719;48.130;11.630;2023-03-01T08:51:13;0.70;99.90
21123;DHT22;10719;48.130;11.630;2023-03-01T08:53:39;0.70;99.90
21123;DHT22;10719;48.130;11.630;2023-03-01T08:56:06;0.80;99.90
21123;DHT22;10719;48.130;11.630;2023-03-01T08:58:31;0.80;99.90
21123;DHT22;10719;48.130;11.630;2023-03-01T09:00:57;1.10;99.90
21123;DHT22;10719;48.130;11.630;2023-03-01T09:03:24;1.10;99.90
21123;DHT22;10719;48.130;11.630;2023-03-01T09:05:50;1.20;99.90
21123;DHT22;10719;48.130;11.630;2023-03-01T09:08:17;1.20;99.90
21123;DHT22;10719;48.130;11.630;2023-03-01T09:10:43;1.10;99.90
21123;DHT22;10719;48.130;11.630;2023-03-01T09:13:08;1.10;99.90
21123;DHT22;10719;48.130;11.630;2023-03-01T09:15:36;1.20;99.90
21123;DHT22;10719;48.130;11.630;2023-03-01T09:18:01;1.30;99.90
21123;DHT22;10719;48.130;11.630;2023-03-01T09:20:27;1.50;99.90
21123;DHT22;10719;48.130;11.630;2023-03-01T09:22:52;1.70;99.90
21123;DHT22;10719;48.130;11.630;2023-03-01T09:25:18;1.60;99.90
21123;DHT22;10719;48.130;11.630;2023-03-01T09:27:43;1.40;99.90
21123;DHT22;10719;48.130;11.630;2023-03-01T09:30:10;1.40;99.90
21123;DHT22;10719;48.130;11.630;2023-03-01T09:32:35;1.60;99.90
21123;DHT22;10719;48.130;11.630;2023-03-01T09:35:01;1.50;99.90
21123;DHT22;10719;48.130;11.630;2023-03-01T09:37:29;1.60;99.90
21123;DHT22;10719;48.130;11.630;2023-03-01T09:39:54;1.70;99.90
21123;DHT22;10719;48.130;11.630;2023-03-01T09:42:20;1.80;99.90
21123;DHT22;10719;48.130;11.630;2023-03-01T09:45:05;1.80;99.90
21123;DHT22;10719;48.130;11.630;2023-03-01T09:47:33;1.80;99.90
21123;DHT22;10719;48.130;11.630;2023-03-01T09:52:33;1.90;99.90
21123;DHT22;10719;48.130;11.630;2023-03-01T09:55:00;1.80;99.90
21123;DHT22;10719;48.130;11.630;2023-03-01T09:57:36;2.00;99.90
21123;DHT22;10719;48.130;11.630;2023-03-01T10:02:43;2.00;99.90
21123;DHT22;10719;48.130;11.630;2023-03-01T10:08:28;1.80;99.90
21123;DHT22;10719;48.130;11.630;2023-03-01T10:10:57;1.90;99.90
21123;DHT22;10719;48.130;11.630;2023-03-01T10:16:14;2.10;99.90
21123;DHT22;10719;48.130;11.630;2023-03-01T10:18:52;2.00;99.90
21123;DHT22;10719;48.130;11.630;2023-03-01T10:21:19;2.10;99.90
21123;DHT22;10719;48.130;11.630;2023-03-01T10:23:45;2.10;99.90
21123;DHT22;10719;48.130;11.630;2023-03-01T10:29:10;2.30;99.90
21123;DHT22;10719;48.130;11.630;2023-03-01T10:31:38;2.60;99.90
21123;DHT22;10719;48.130;11.630;2023-03-01T10:34:13;2.80;99.90
21123;DHT22;10719;48.130;11.630;2023-03-01T10:36:41;2.80;99.90
21123;DHT22;10719;48.130;11.630;2023-03-01T10:39:33;2.90;99.90
21123;DHT22;10719;48.130;11.630;2023-03-01T10:42:05;3.10;99.90
21123;DHT22;10719;48.130;11.630;2023-03-01T10:44:41;3.20;99.90
21123;DHT22;10719;48.130;11.630;2023-03-01T10:47:14;3.30;99.90
21123;DHT22;10719;48.130;11.630;2023-03-01T10:52:23;4.90;99.90
21123;DHT22;10719;48.130;11.630;2023-03-01T10:54:57;4.90;99.90
21123;DHT22;10719;48.130;11.630;2023-03-01T10:57:35;4.50;99.90
21123;DHT22;10719;48.130;11.630;2023-03-01T11:00:26;3.80;99.90
21123;DHT22;10719;48.130;11.630;2023-03-01T11:05:24;5.60;99.90
21123;DHT22;10719;48.130;11.630;2023-03-01T11:07:52;5.60;99.90
21123;DHT22;10719;48.130;11.630;2023-03-01T11:10:33;6.40;99.90
21123;DHT22;10719;48.130;11.630;2023-03-01T11:13:14;8.20;99.90
21123;DHT22;10719;48.130;11.630;2023-03-01T11:15:40;7.30;99.90
21123;DHT22;10719;48.130;11.630;2023-03-01T11:18:21;8.40;99.90
21123;DHT22;10719;48.130;11.630;2023-03-01T11:20:48;8.40;99.90
21123;DHT22;10719;48.130;11.630;2023-03-01T11:23:16;9.90;99.90
21123;DHT22;10719;48.130;11.630;2023-03-01T11:25:47;10.10;99.90
21123;DHT22;10719;48.130;11.630;2023-03-01T11:28:17;11.00;99.90
21123;DHT22;10719;48.130;11.630;2023-03-01T11:31:06;10.60;99.90
21123;DHT22;10719;48.130;11.630;2023-03-01T11:33:44;10.00;99.90
21123;DHT22;10719;48.130;11.630;2023-03-01T11:39:10;9.70;99.90
21123;DHT22;10719;48.130;11.630;2023-03-01T11:41:39;10.30;99.90
21123;DHT22;10719;48.130;11.630;2023-03-01T11:44:26;11.20;99.90
21123;DHT22;10719;48.130;11.630;2023-03-01T12:00:56;8.90;99.90
21123;DHT22;10719;48.130;11.630;2023-03-01T12:12:29;10.00;99.90
21123;DHT22;10719;48.130;11.630;2023-03-01T12:15:18;10.20;99.90
21123;DHT22;10719;48.130;11.630;2023-03-01T12:20:49;10.90;99.90
21123;DHT22;10719;48.130;11.630;2023-03-01T12:29:13;11.00;99.90
21123;DHT22;10719;48.130;11.630;2023-03-01T12:32:21;11.10;99.90
21123;DHT22;10719;48.130;11.630;2023-03-01T12:34:53;10.70;99.90
21123;DHT22;10719;48.130;11.630;2023-03-01T12:37:31;10.30;99.90
21123;DHT22;10719;48.130;11.630;2023-03-01T12:40:24;10.40;99.90
21123;DHT22;10719;48.130;11.630;2023-03-01T12:51:20;11.60;99.90
21123;DHT22;10719;48.130;11.630;2023-03-01T12:53:50;10.70;99.90
21123;DHT22;10719;48.130;11.630;2023-03-01T12:56:25;11.20;99.90
21123;DHT22;10719;48.130;11.630;2023-03-01T13:11:58;12.00;99.90
21123;DHT22;10719;48.130;11.630;2023-03-01T13:16:52;11.40;99.90
21123;DHT22;10719;48.130;11.630;2023-03-01T13:19:23;12.60;99.90
21123;DHT22;10719;48.130;11.630;2023-03-01T13:21:52;12.60;99.90
21123;DHT22;10719;48.130;11.630;2023-03-01T13:24:39;12.60;99.90
21123;DHT22;10719;48.130;11.630;2023-03-01T13:27:09;13.90;99.90
21123;DHT22;10719;48.130;11.630;2023-03-01T13:29:54;12.30;99.90
21123;DHT22;10719;48.130;11.630;2023-03-01T13:32:24;12.80;99.90
21123;DHT22;10719;48.130;11.630;2023-03-01T13:35:01;12.90;99.90
21123;DHT22;10719;48.130;11.630;2023-03-01T13:37:34;12.00;99.90
21123;DHT22;10719;48.130;11.630;2023-03-01T13:40:57;12.00;99.90
21123;DHT22;10719;48.130;11.630;2023-03-01T13:42:55;12.40;99.90
21123;DHT22;10719;48.130;11.630;2023-03-01T13:45:38;12.80;99.90
21123;DHT22;10719;48.130;11.630;2023-03-01T13:50:43;13.00;99.90
21123;DHT22;10719;48.130;11.630;2023-03-01T13:53:16;13.20;99.90
21123;DHT22;10719;48.130;11.630;2023-03-01T13:55:45;13.80;99.90
21123;DHT22;10719;48.130;11.630;2023-03-01T13:58:16;13.00;99.90
21123;DHT22;10719;48.130;11.630;2023-03-01T14:00:44;13.00;99.90
21123;DHT22;10719;48.130;11.630;2023-03-01T14:03:13;12.50;99.90
21123;DHT22;10719;48.130;11.630;2023-03-01T14:05:40;11.20;99.90
21123;DHT22;10719;48.130;11.630;2023-03-01T14:08:20;10.70;99.90
21123;DHT22;10719;48.130;11.630;2023-03-01T14:19:26;8.80;99.90
21123;DHT22;10719;48.130;11.630;2023-03-01T14:22:11;8.80;99.90
21123;DHT22;10719;48.130;11.630;2023-03-01T14:24:47;8.60;99.90
21123;DHT22;10719;48.130;11.630;2023-03-01T14:27:15;8.90;99.90
21123;DHT22;10719;48.130;11.630;2023-03-01T14:29:41;8.60;99.90
21123;DHT22;10719;48.130;11.630;2023-03-01T14:32:29;8.30;99.90
21123;DHT22;10719;48.130;11.630;2023-03-01T14:34:56;8.40;99.90
21123;DHT22;10719;48.130;11.630;2023-03-01T14:37:27;8.40;99.90
21123;DHT22;10719;48.130;11.630;2023-03-01T14:39:53;8.00;99.90
21123;DHT22;10719;48.130;11.630;2023-03-01T14:42:21;8.20;99.90
21123;DHT22;10719;48.130;11.630;2023-03-01T14:44:49;8.30;99.90
21123;DHT22;10719;48.130;11.630;2023-03-01T14:47:32;8.00;99.90
21123;DHT22;10719;48.130;11.630;2023-03-01T14:50:02;8.30;99.90
21123;DHT22;10719;48.130;11.630;2023-03-01T14:52:37;8.40;99.90
21123;DHT22;10719;48.130;11.630;2023-03-01T14:55:31;8.10;99.90
21123;DHT22;10719;48.130;11.630;2023-03-01T14:57:58;8.00;99.90
21123;DHT22;10719;48.130;11.630;2023-03-01T15:00:29;7.80;99.90
21123;DHT22;10719;48.130;11.630;2023-03-01T15:03:00;7.70;99.90
21123;DHT22;10719;48.130;11.630;2023-03-01T15:05:32;7.40;99.90
21123;DHT22;10719;48.130;11.630;2023-03-01T15:08:01;7.60;99.90
21123;DHT22;10719;48.130;11.630;2023-03-01T15:10:32;7.60;99.90
21123;DHT22;10719;48.130;11.630;2023-03-01T15:13:34;7.70;99.90
21123;DHT22;10719;48.130;11.630;2023-03-01T15:16:21;7.80;99.90
21123;DHT22;10719;48.130;11.630;2023-03-01T15:21:48;7.50;99.90
21123;DHT22;10719;48.130;11.630;2023-03-01T15:24:22;7.40;99.90
21123;DHT22;10719;48.130;11.630;2023-03-01T15:26:58;7.40;99.90
21123;DHT22;10719;48.130;11.630;2023-03-01T15:29:29;7.30;99.90
21123;DHT22;10719;48.130;11.630;2023-03-01T15:32:06;7.30;99.90
21123;DHT22;10719;48.130;11.630;2023-03-01T15:34:38;7.20;99.90
21123;DHT22;10719;48.130;11.630;2023-03-01T15:37:06;7.00;99.90
21123;DHT22;10719;48.130;11.630;2023-03-01T15:39:54;7.00;99.90
21123;DHT22;10719;48.130;11.630;2023-03-01T15:48:13;7.10;99.90
21123;DHT22;10719;48.130;11.630;2023-03-01T15:50:40;7.10;99.90
21123;DHT22;10719;48.130;11.630;2023-03-01T15:53:10;6.90;99.90
21123;DHT22;10719;48.130;11.630;2023-03-01T15:55:36;6.80;99.90
21123;DHT22;10719;48.130;11.630;2023-03-01T15:58:23;6.70;99.90
21123;DHT22;10719;48.130;11.630;2023-03-01T16:00:50;6.60;99.90
21123;DHT22;10719;48.130;11.630;2023-03-01T16:03:21;6.60;99.90
21123;DHT22;10719;48.130;11.630;2023-03-01T16:05:48;6.50;99.90
21123;DHT22;10719;48.130;11.630;2023-03-01T16:08:16;6.40;99.90
21123;DHT22;10719;48.130;11.630;2023-03-01T16:10:43;6.40;99.90
21123;DHT22;10719;48.130;11.630;2023-03-01T16:13:12;6.20;99.90
21123;DHT22;10719;48.130;11.630;2023-03-01T16:15:38;6.20;99.90
21123;DHT22;10719;48.130;11.630;2023-03-01T16:18:06;6.20;99.90
21123;DHT22;10719;48.130;11.630;2023-03-01T16:20:34;6.10;99.90
21123;DHT22;10719;48.130;11.630;2023-03-01T16:23:05;6.10;99.90
21123;DHT22;10719;48.130;11.630;2023-03-01T16:25:34;6.00;99.90
21123;DHT22;10719;48.130;11.630;2023-03-01T16:28:00;6.00;99.90
21123;DHT22;10719;48.130;11.630;2023-03-01T16:30:30;5.90;99.90
21123;DHT22;10719;48.130;11.630;2023-03-01T16:32:55;5.80;99.90
21123;DHT22;10719;48.130;11.630;2023-03-01T16:35:22;5.70;99.90
21123;DHT22;10719;48.130;11.630;2023-03-01T16:37:49;5.70;99.90
21123;DHT22;10719;48.130;11.630;2023-03-01T16:40:26;5.70;99.90
21123;DHT22;10719;48.130;11.630;2023-03-01T16:42:52;5.70;99.90
21123;DHT22;10719;48.130;11.630;2023-03-01T16:45:19;5.60;99.90
21123;DHT22;10719;48.130;11.630;2023-03-01T16:47:45;5.50;99.90
21123;DHT22;10719;48.130;11.630;2023-03-01T16:50:10;5.40;99.90
21123;DHT22;10719;48.130;11.630;2023-03-01T16:52:36;5.30;99.90
21123;DHT22;10719;48.130;11.630;2023-03-01T16:55:03;5.30;99.90
21123;DHT22;10719;48.130;11.630;2023-03-01T16:57:30;5.20;99.90
21123;DHT22;10719;48.130;11.630;2023-03-01T16:59:55;5.10;99.90
21123;DHT22;10719;48.130;11.630;2023-03-01T17:02:21;5.00;99.90
21123;DHT22;10719;48.130;11.630;2023-03-01T17:04:55;4.90;99.90
21123;DHT22;10719;48.130;11.630;2023-03-01T17:07:22;4.80;99.90
21123;DHT22;10719;48.130;11.630;2023-03-01T17:09:48;4.70;99.90
21123;DHT22;10719;48.130;11.630;2023-03-01T17:12:14;4.60;99.90
21123;DHT22;10719;48.130;11.630;2023-03-01T17:14:40;4.50;99.90
21123;DHT22;10719;48.130;11.630;2023-03-01T17:17:10;4.50;99.90
21123;DHT22;10719;48.130;11.630;2023-03-01T17:19:36;4.30;99.90
21123;DHT22;10719;48.130;11.630;2023-03-01T17:22:07;4.00;99.90
21123;DHT22;10719;48.130;11.630;2023-03-01T17:24:34;3.90;99.90
21123;DHT22;10719;48.130;11.630;2023-03-01T17:27:00;3.80;99.90
21123;DHT22;10719;48.130;11.630;2023-03-01T17:29:25;3.70;99.90
21123;DHT22;10719;48.130;11.630;2023-03-01T17:31:51;3.60;99.90
21123;DHT22;10719;48.130;11.630;2023-03-01T17:34:19;3.50;99.90